createdAt,value
2016-12-27T00:00:26.180Z,4.54
2016-12-27T00:01:32.345Z,4.58
2016-12-27T00:02:37.942Z,4.55
2016-12-27T00:03:42.171Z,4.5
2016-12-27T00:04:47.509Z,4.5
2016-12-27T00:05:53.798Z,4.43
2016-12-27T00:08:04.195Z,4.43
2016-12-27T00:09:08.428Z,4.47
2016-12-27T00:10:14.588Z,4.46
2016-12-27T00:11:20.760Z,4.42
2016-12-27T00:12:26.928Z,4.39
2016-12-27T00:13:31.169Z,4.54
2016-12-27T00:14:36.354Z,4.51
2016-12-27T00:15:40.572Z,4.57
2016-12-27T00:16:44.769Z,4.54
2016-12-27T00:17:49.002Z,4.43
2016-12-27T00:18:54.201Z,4.47
2016-12-27T00:19:58.434Z,4.43
2016-12-27T00:21:03.645Z,4.46
2016-12-27T00:22:07.875Z,4.37
2016-12-27T00:23:11.148Z,4.34
2016-12-27T00:24:16.345Z,4.32
2016-12-27T00:25:22.551Z,4.44
2016-12-27T00:26:28.721Z,4.47
2016-12-27T00:27:34.891Z,4.43
2016-12-27T00:28:41.066Z,4.4
2016-12-27T00:29:47.239Z,4.43
2016-12-27T00:30:53.409Z,4.42
2016-12-27T00:31:59.581Z,4.47
2016-12-27T00:33:04.774Z,4.51
2016-12-27T00:34:11.005Z,4.42
2016-12-27T00:35:15.204Z,4.44
2016-12-27T00:36:20.376Z,4.39
2016-12-27T00:37:26.545Z,4.4
2016-12-27T00:38:32.714Z,4.52
2016-12-27T00:39:38.931Z,4.47
2016-12-27T00:40:43.130Z,4.42
2016-12-27T00:41:48.330Z,4.47
2016-12-27T00:42:53.527Z,4.42
2016-12-27T00:43:58.731Z,4.4
2016-12-27T00:45:03.984Z,4.42
2016-12-27T00:46:09.114Z,4.36
2016-12-27T00:47:13.344Z,4.28
2016-12-27T00:48:19.533Z,4.29
2016-12-27T00:49:23.760Z,4.42
2016-12-27T00:50:29.942Z,4.46
2016-12-27T00:51:35.141Z,4.46
2016-12-27T00:52:41.303Z,4.44
2016-12-27T00:53:45.586Z,4.42
2016-12-27T00:54:48.930Z,4.37
2016-12-27T00:55:54.135Z,4.46
2016-12-27T00:56:58.657Z,4.43
2016-12-27T00:58:04.820Z,4.46
2016-12-27T00:59:10.990Z,4.42
2016-12-27T01:00:16.215Z,4.42
2016-12-27T01:01:21.411Z,4.55
2016-12-27T01:02:27.577Z,4.58
2016-12-27T01:03:31.516Z,4.58
2016-12-27T01:04:36.685Z,4.58
2016-12-27T01:05:41.875Z,4.67
2016-12-27T01:06:48.044Z,4.69
2016-12-27T01:07:54.238Z,4.77
2016-12-27T01:09:00.379Z,4.86
2016-12-27T01:10:06.595Z,4.95
2016-12-27T01:11:12.758Z,4.95
2016-12-27T01:12:18.924Z,4.98
2016-12-27T01:13:25.093Z,4.96
2016-12-27T01:14:29.320Z,5.07
2016-12-27T01:15:33.619Z,4.96
2016-12-27T01:16:38.811Z,5.05
2016-12-27T01:17:43.517Z,5.04
2016-12-27T01:18:47.749Z,5.02
2016-12-27T01:19:54.014Z,4.98
2016-12-27T01:21:00.227Z,4.95
2016-12-27T01:22:05.381Z,4.96
2016-12-27T01:23:10.672Z,4.95
2016-12-27T01:24:14.976Z,4.96
2016-12-27T01:25:19.190Z,4.96
2016-12-27T01:26:24.396Z,4.8
2016-12-27T01:27:29.568Z,4.86
2016-12-27T01:28:35.748Z,4.86
2016-12-27T01:29:40.009Z,4.8
2016-12-27T01:30:44.240Z,4.8
2016-12-27T01:31:49.468Z,4.76
2016-12-27T01:32:55.651Z,4.77
2016-12-27T01:34:01.800Z,4.77
2016-12-27T01:35:06.992Z,4.72
2016-12-27T01:36:12.185Z,4.77
2016-12-27T01:37:15.515Z,4.8
2016-12-27T01:38:19.744Z,4.79
2016-12-27T01:39:23.961Z,4.84
2016-12-27T01:40:30.127Z,4.86
2016-12-27T01:41:35.329Z,4.83
2016-12-27T01:42:41.496Z,4.83
2016-12-27T01:43:46.688Z,4.86
2016-12-27T01:44:50.986Z,4.84
2016-12-27T01:45:57.153Z,4.8
2016-12-27T01:47:02.367Z,4.98
2016-12-27T01:48:07.540Z,4.92
2016-12-27T01:49:13.696Z,4.88
2016-12-27T01:50:19.863Z,4.96
2016-12-27T01:51:26.035Z,4.91
2016-12-27T01:52:32.212Z,4.88
2016-12-27T01:53:36.411Z,4.88
2016-12-27T01:54:42.581Z,4.84
2016-12-27T01:55:47.781Z,4.83
2016-12-27T01:56:52.020Z,4.8
2016-12-27T01:57:56.247Z,4.76
2016-12-27T01:59:01.455Z,4.7
2016-12-27T02:00:06.654Z,4.73
2016-12-27T02:01:12.818Z,4.72
2016-12-27T02:02:17.024Z,4.62
2016-12-27T02:03:22.207Z,4.58
2016-12-27T02:04:27.371Z,4.65
2016-12-27T02:05:33.531Z,4.57
2016-12-27T02:06:38.725Z,4.57
2016-12-27T02:07:44.889Z,4.58
2016-12-27T02:08:51.064Z,4.51
2016-12-27T02:09:56.250Z,4.42
2016-12-27T02:11:01.448Z,4.37
2016-12-27T02:12:07.620Z,4.43
2016-12-27T02:13:13.831Z,4.42
2016-12-27T02:14:19.088Z,4.26
2016-12-27T02:15:23.296Z,4.43
2016-12-27T02:16:25.683Z,4.33
2016-12-27T02:17:31.850Z,4.39
2016-12-27T02:18:38.019Z,4.36
2016-12-27T02:19:41.284Z,4.37
2016-12-27T02:20:47.465Z,4.46
2016-12-27T02:21:51.689Z,4.42
2016-12-27T02:22:57.858Z,4.52
2016-12-27T02:24:03.061Z,4.57
2016-12-27T02:25:07.264Z,4.7
2016-12-27T02:26:12.558Z,4.73
2016-12-27T02:27:18.726Z,4.72
2016-12-27T02:28:24.949Z,4.73
2016-12-27T02:29:31.121Z,4.86
2016-12-27T02:30:36.283Z,4.92
2016-12-27T02:31:41.451Z,4.89
2016-12-27T02:32:47.611Z,4.95
2016-12-27T02:33:52.822Z,4.95
2016-12-27T02:34:58.018Z,4.94
2016-12-27T02:36:04.219Z,5.02
2016-12-27T02:37:10.352Z,4.92
2016-12-27T02:38:16.515Z,4.94
2016-12-27T02:39:20.746Z,4.99
2016-12-27T02:40:26.987Z,4.99
2016-12-27T02:41:32.146Z,4.91
2016-12-27T02:42:38.327Z,4.95
2016-12-27T02:43:43.542Z,4.98
2016-12-27T02:44:46.773Z,4.92
2016-12-27T02:45:52.941Z,4.94
2016-12-27T02:46:59.155Z,4.94
2016-12-27T02:48:04.357Z,4.95
2016-12-27T02:49:07.598Z,4.94
2016-12-27T02:50:11.829Z,4.92
2016-12-27T02:51:16.996Z,4.86
2016-12-27T02:52:22.212Z,4.83
2016-12-27T02:53:28.376Z,4.76
2016-12-27T02:54:34.543Z,4.77
2016-12-27T02:55:40.703Z,4.72
2016-12-27T02:56:46.900Z,4.64
2016-12-27T02:57:52.044Z,4.73
2016-12-27T02:58:56.271Z,4.64
2016-12-27T03:00:01.473Z,4.64
2016-12-27T03:01:07.638Z,4.64
2016-12-27T03:02:12.817Z,4.72
2016-12-27T03:03:18.009Z,4.7
2016-12-27T03:04:23.208Z,4.75
2016-12-27T03:05:29.382Z,4.72
2016-12-27T03:06:35.558Z,4.72
2016-12-27T03:07:41.723Z,4.75
2016-12-27T03:08:47.954Z,4.73
2016-12-27T03:09:52.179Z,4.77
2016-12-27T03:10:58.340Z,4.67
2016-12-27T03:12:03.541Z,4.75
2016-12-27T03:13:08.771Z,4.77
2016-12-27T03:14:14.937Z,4.91
2016-12-27T03:15:20.202Z,4.89
2016-12-27T03:16:23.694Z,4.98
2016-12-27T03:17:28.887Z,5.01
2016-12-27T03:18:34.087Z,5.05
2016-12-27T03:19:40.344Z,5.09
2016-12-27T03:20:46.479Z,5.14
2016-12-27T03:21:52.637Z,5.14
2016-12-27T03:22:56.868Z,5.13
2016-12-27T03:24:03.044Z,5.13
2016-12-27T03:25:08.301Z,5.13
2016-12-27T03:26:11.620Z,5.13
2016-12-27T03:27:15.846Z,5.12
2016-12-27T03:28:19.248Z,5.14
2016-12-27T03:29:25.386Z,5.14
2016-12-27T03:30:30.576Z,5.13
2016-12-27T03:31:35.775Z,5.13
2016-12-27T03:32:40.969Z,5.09
2016-12-27T03:33:46.189Z,5.14
2016-12-27T03:34:52.351Z,5.07
2016-12-27T03:35:58.520Z,5.12
2016-12-27T03:37:04.685Z,5.1
2016-12-27T03:38:08.885Z,5.2
2016-12-27T03:39:15.049Z,5.17
2016-12-27T03:40:20.247Z,5.12
2016-12-27T03:41:26.415Z,5.09
2016-12-27T03:42:31.613Z,5.17
2016-12-27T03:43:36.829Z,5.22
2016-12-27T03:44:42.029Z,5.13
2016-12-27T03:45:48.209Z,5.09
2016-12-27T03:46:53.413Z,5.1
2016-12-27T03:47:59.580Z,5.12
2016-12-27T03:49:03.827Z,5.12
2016-12-27T03:50:09.031Z,5.16
2016-12-27T03:51:15.186Z,5.2
2016-12-27T03:52:19.438Z,5.13
2016-12-27T03:53:24.635Z,5.2
2016-12-27T03:54:30.809Z,5.13
2016-12-27T03:55:34.062Z,5.12
2016-12-27T03:56:39.263Z,5.1
2016-12-27T03:57:44.457Z,4.99
2016-12-27T03:58:49.660Z,5.02
2016-12-27T03:59:54.810Z,4.95
2016-12-27T04:01:00.064Z,4.92
2016-12-27T04:02:06.226Z,4.99
2016-12-27T04:03:11.430Z,4.86
2016-12-27T04:04:15.630Z,4.83
2016-12-27T04:05:19.894Z,4.79
2016-12-27T04:06:25.070Z,4.76
2016-12-27T04:07:30.278Z,4.75
2016-12-27T04:08:35.469Z,4.72
2016-12-27T04:09:40.674Z,4.75
2016-12-27T04:10:45.872Z,4.75
2016-12-27T04:11:51.072Z,4.64
2016-12-27T04:12:56.266Z,4.67
2016-12-27T04:14:01.581Z,4.61
2016-12-27T04:15:06.780Z,4.7
2016-12-27T04:16:11.976Z,4.67
2016-12-27T04:17:18.142Z,4.69
2016-12-27T04:18:24.393Z,4.57
2016-12-27T04:19:29.594Z,4.64
2016-12-27T04:20:35.763Z,4.64
2016-12-27T04:21:41.934Z,4.58
2016-12-27T04:22:47.135Z,4.69
2016-12-27T04:23:52.268Z,4.62
2016-12-27T04:24:58.432Z,4.58
2016-12-27T04:26:04.608Z,4.62
2016-12-27T04:27:08.898Z,4.69
2016-12-27T04:28:14.067Z,4.7
2016-12-27T04:29:20.235Z,4.64
2016-12-27T04:30:24.467Z,4.64
2016-12-27T04:32:35.835Z,4.64
2016-12-27T04:33:41.036Z,4.7
2016-12-27T04:34:46.210Z,4.65
2016-12-27T04:35:52.380Z,4.59
2016-12-27T04:36:58.552Z,4.58
2016-12-27T04:38:04.723Z,4.64
2016-12-27T04:39:07.990Z,4.55
2016-12-27T04:40:12.170Z,4.62
2016-12-27T04:41:18.331Z,4.62
2016-12-27T04:42:23.566Z,4.54
2016-12-27T04:43:28.767Z,4.54
2016-12-27T04:44:33.985Z,4.65
2016-12-27T04:45:39.157Z,4.72
2016-12-27T04:46:44.358Z,4.72
2016-12-27T04:47:50.525Z,4.72
2016-12-27T04:48:56.035Z,4.76
2016-12-27T04:50:00.265Z,4.8
2016-12-27T04:51:06.437Z,4.84
2016-12-27T04:52:11.688Z,4.73
2016-12-27T04:53:16.962Z,4.77
2016-12-27T04:54:23.329Z,4.79
2016-12-27T04:55:28.491Z,4.76
2016-12-27T04:56:33.681Z,4.65
2016-12-27T04:57:39.851Z,4.62
2016-12-27T04:58:45.053Z,4.67
2016-12-27T04:59:51.215Z,4.64
2016-12-27T05:00:55.489Z,4.72
2016-12-27T05:02:00.692Z,4.73
2016-12-27T05:03:06.861Z,4.77
2016-12-27T05:04:12.065Z,4.8
2016-12-27T05:05:18.225Z,4.84
2016-12-27T05:06:23.519Z,4.83
2016-12-27T05:07:28.717Z,4.86
2016-12-27T05:08:33.919Z,4.89
2016-12-27T05:09:40.081Z,4.89
2016-12-27T05:10:45.334Z,4.8
2016-12-27T05:11:50.533Z,4.77
2016-12-27T05:12:56.711Z,4.69
2016-12-27T05:14:00.903Z,4.72
2016-12-27T05:15:07.072Z,4.62
2016-12-27T05:16:12.284Z,4.59
2016-12-27T05:17:17.484Z,4.61
2016-12-27T05:18:23.659Z,4.46
2016-12-27T05:19:29.906Z,4.51
2016-12-27T05:20:33.108Z,4.46
2016-12-27T05:21:38.311Z,4.44
2016-12-27T05:22:44.479Z,4.37
2016-12-27T05:23:48.705Z,4.39
2016-12-27T05:24:54.875Z,4.32
2016-12-27T05:26:01.035Z,4.37
2016-12-27T05:27:07.201Z,4.43
2016-12-27T05:28:12.400Z,4.46
2016-12-27T05:29:16.629Z,4.46
2016-12-27T05:30:21.829Z,4.44
2016-12-27T05:31:26.080Z,4.54
2016-12-27T05:32:31.276Z,4.46
2016-12-27T05:33:35.511Z,4.57
2016-12-27T05:34:40.738Z,4.61
2016-12-27T05:35:46.873Z,4.57
2016-12-27T05:36:51.094Z,4.61
2016-12-27T05:37:57.265Z,4.61
2016-12-27T05:39:02.427Z,4.76
2016-12-27T05:40:08.603Z,4.75
2016-12-27T05:41:13.814Z,4.69
2016-12-27T05:42:19.011Z,4.73
2016-12-27T05:43:23.330Z,4.64
2016-12-27T05:44:28.507Z,4.61
2016-12-27T05:45:33.823Z,4.65
2016-12-27T05:46:38.988Z,4.61
2016-12-27T05:47:44.179Z,4.64
2016-12-27T05:48:49.377Z,4.58
2016-12-27T05:49:54.568Z,4.67
2016-12-27T05:50:59.761Z,4.55
2016-12-27T05:52:04.961Z,4.54
2016-12-27T05:53:10.163Z,4.52
2016-12-27T05:54:14.401Z,4.52
2016-12-27T05:55:19.601Z,4.61
2016-12-27T05:56:22.844Z,4.62
2016-12-27T05:57:29.004Z,4.61
2016-12-27T05:58:34.220Z,4.55
2016-12-27T05:59:38.438Z,4.57
2016-12-27T06:00:43.633Z,4.62
2016-12-27T06:01:49.810Z,4.57
2016-12-27T06:02:54.983Z,4.58
2016-12-27T06:04:00.233Z,4.61
2016-12-27T06:05:05.459Z,4.64
2016-12-27T06:06:10.657Z,4.59
2016-12-27T06:07:15.862Z,4.52
2016-12-27T06:08:21.055Z,4.44
2016-12-27T06:09:25.281Z,4.43
2016-12-27T06:10:30.534Z,4.33
2016-12-27T06:11:36.700Z,4.26
2016-12-27T06:12:39.962Z,4.32
2016-12-27T06:13:46.130Z,4.25
2016-12-27T06:14:52.283Z,4.18
2016-12-27T06:15:56.517Z,4.16
2016-12-27T06:17:01.717Z,4.19
2016-12-27T06:18:06.913Z,4.16
2016-12-27T06:19:13.124Z,4.15
2016-12-27T06:20:18.330Z,4.21
2016-12-27T06:21:24.494Z,4.14
2016-12-27T06:22:29.694Z,4.12
2016-12-27T06:23:33.023Z,4.03
2016-12-27T06:24:38.248Z,4.1
2016-12-27T06:25:42.462Z,4.04
2016-12-27T06:26:47.654Z,4.03
2016-12-27T06:27:52.850Z,4.01
2016-12-27T06:28:58.048Z,4.01
2016-12-27T06:30:04.220Z,3.96
2016-12-27T06:31:09.540Z,3.97
2016-12-27T06:32:15.355Z,3.96
2016-12-27T06:33:20.595Z,3.98
2016-12-27T06:34:26.728Z,4.07
2016-12-27T06:35:30.932Z,4.01
2016-12-27T06:36:36.126Z,4.01
2016-12-27T06:37:42.291Z,4.07
2016-12-27T06:38:45.555Z,4.04
2016-12-27T06:39:48.892Z,4.06
2016-12-27T06:40:55.054Z,4.1
2016-12-27T06:42:00.329Z,4.12
2016-12-27T06:43:04.540Z,4.14
2016-12-27T06:44:09.737Z,4.21
2016-12-27T06:45:14.941Z,4.19
2016-12-27T06:46:20.108Z,4.1
2016-12-27T06:47:25.309Z,4.21
2016-12-27T06:48:31.473Z,4.16
2016-12-27T06:49:36.673Z,4.24
2016-12-27T06:50:41.877Z,4.25
2016-12-27T06:51:48.064Z,4.24
2016-12-27T06:52:53.262Z,4.28
2016-12-27T06:53:59.461Z,4.29
2016-12-27T06:55:05.695Z,4.26
2016-12-27T06:56:10.901Z,4.32
2016-12-27T06:57:14.160Z,4.26
2016-12-27T06:58:19.352Z,4.29
2016-12-27T06:59:23.589Z,4.29
2016-12-27T07:00:29.754Z,4.32
2016-12-27T07:01:33.978Z,4.25
2016-12-27T07:02:39.175Z,4.25
2016-12-27T07:03:44.363Z,4.33
2016-12-27T07:04:50.524Z,4.29
2016-12-27T07:05:54.789Z,4.26
2016-12-27T07:06:59.013Z,4.33
2016-12-27T07:08:04.304Z,4.32
2016-12-27T07:09:09.613Z,4.25
2016-12-27T07:10:13.137Z,4.28
2016-12-27T07:11:18.384Z,4.28
2016-12-27T07:12:24.547Z,4.32
2016-12-27T07:13:28.885Z,4.32
2016-12-27T07:14:33.149Z,4.29
2016-12-27T07:15:39.319Z,4.25
2016-12-27T07:16:43.532Z,4.25
2016-12-27T07:17:48.725Z,4.24
2016-12-27T07:18:54.893Z,4.33
2016-12-27T07:20:00.099Z,4.26
2016-12-27T07:21:05.342Z,4.26
2016-12-27T07:22:11.503Z,4.28
2016-12-27T07:23:16.739Z,4.28
2016-12-27T07:24:21.941Z,4.22
2016-12-27T07:25:26.204Z,4.21
2016-12-27T07:26:31.400Z,4.28
2016-12-27T07:27:35.629Z,4.22
2016-12-27T07:28:40.804Z,4.18
2016-12-27T07:29:45.970Z,4.18
2016-12-27T07:30:52.133Z,4.18
2016-12-27T07:31:57.333Z,4.14
2016-12-27T07:33:03.495Z,4.14
2016-12-27T07:34:07.795Z,4.21
2016-12-27T07:35:13.032Z,4.21
2016-12-27T07:36:17.247Z,4.18
2016-12-27T07:37:22.387Z,4.14
2016-12-27T07:38:26.335Z,4.24
2016-12-27T07:39:32.506Z,4.25
2016-12-27T07:40:36.735Z,4.25
2016-12-27T07:41:40.963Z,4.26
2016-12-27T07:42:46.152Z,4.32
2016-12-27T07:43:50.384Z,4.29
2016-12-27T07:44:56.570Z,4.29
2016-12-27T07:46:01.770Z,4.33
2016-12-27T07:47:07.983Z,4.29
2016-12-27T07:48:13.180Z,4.28
2016-12-27T07:49:19.352Z,4.32
2016-12-27T07:50:23.588Z,4.32
2016-12-27T07:51:24.880Z,4.33
2016-12-27T07:52:30.082Z,4.33
2016-12-27T07:53:35.276Z,4.33
2016-12-27T07:54:40.444Z,4.44
2016-12-27T07:55:45.737Z,4.47
2016-12-27T07:56:51.908Z,4.57
2016-12-27T07:57:58.104Z,4.54
2016-12-27T07:59:04.270Z,4.62
2016-12-27T08:00:09.435Z,4.57
2016-12-27T08:01:15.597Z,4.59
2016-12-27T08:02:18.860Z,4.61
2016-12-27T08:03:25.043Z,4.61
2016-12-27T08:04:31.207Z,4.75
2016-12-27T08:05:37.409Z,4.7
2016-12-27T08:06:42.569Z,4.7
2016-12-27T08:07:46.802Z,4.8
2016-12-27T08:08:52.018Z,4.8
2016-12-27T08:09:56.321Z,4.76
2016-12-27T08:11:02.485Z,4.79
2016-12-27T08:12:08.664Z,4.86
2016-12-27T08:13:14.830Z,4.84
2016-12-27T08:14:20.017Z,4.83
2016-12-27T08:15:24.258Z,4.86
2016-12-27T08:16:30.408Z,4.88
2016-12-27T08:17:35.611Z,4.92
2016-12-27T08:18:38.879Z,4.95
2016-12-27T08:19:44.079Z,4.98
2016-12-27T08:20:50.237Z,4.95
2016-12-27T08:21:55.434Z,4.95
2016-12-27T08:23:01.677Z,5.07
2016-12-27T08:24:05.889Z,4.99
2016-12-27T08:25:11.131Z,5.12
2016-12-27T08:26:16.332Z,5.2
2016-12-27T08:27:22.470Z,5.13
2016-12-27T08:28:28.740Z,5.1
2016-12-27T08:29:34.923Z,5.09
2016-12-27T08:30:40.115Z,5.19
2016-12-27T08:31:46.277Z,5.2
2016-12-27T08:32:50.478Z,5.17
2016-12-27T08:33:56.680Z,5.27
2016-12-27T08:35:01.864Z,5.3
2016-12-27T08:36:08.031Z,5.3
2016-12-27T08:37:13.227Z,5.37
2016-12-27T08:38:19.394Z,5.31
2016-12-27T08:39:23.620Z,5.32
2016-12-27T08:40:29.785Z,5.32
2016-12-27T08:42:41.127Z,5.45
2016-12-27T08:43:46.451Z,5.43
2016-12-27T08:44:52.634Z,5.43
2016-12-27T08:45:57.804Z,5.53
2016-12-27T08:47:02.974Z,5.43
2016-12-27T08:48:09.139Z,5.48
2016-12-27T08:49:15.307Z,5.52
2016-12-27T08:50:21.633Z,5.5
2016-12-27T08:51:26.835Z,5.45
2016-12-27T08:52:32.033Z,5.45
2016-12-27T08:53:36.263Z,5.52
2016-12-27T08:54:42.482Z,5.53
2016-12-27T08:55:47.756Z,5.7
2016-12-27T08:56:53.887Z,5.64
2016-12-27T08:57:58.860Z,5.7
2016-12-27T08:59:04.145Z,5.67
2016-12-27T09:00:10.310Z,5.74
2016-12-27T09:01:16.533Z,5.64
2016-12-27T09:02:21.704Z,5.7
2016-12-27T09:03:26.909Z,5.73
2016-12-27T09:04:33.079Z,5.81
2016-12-27T09:05:37.292Z,5.81
2016-12-27T09:06:41.542Z,5.85
2016-12-27T09:07:46.678Z,5.91
2016-12-27T09:08:52.880Z,5.85
2016-12-27T09:09:58.086Z,5.89
2016-12-27T09:11:03.285Z,5.91
2016-12-27T09:12:09.487Z,6.03
2016-12-27T09:13:12.725Z,6.03
2016-12-27T09:14:15.003Z,6.07
2016-12-27T09:15:20.184Z,6.04
2016-12-27T09:16:25.376Z,6.14
2016-12-27T09:17:29.577Z,6.18
2016-12-27T09:18:34.766Z,6.16
2016-12-27T09:19:40.947Z,6.26
2016-12-27T09:20:46.151Z,6.32
2016-12-27T09:21:49.510Z,6.4
2016-12-27T09:22:54.772Z,6.41
2016-12-27T09:23:59.049Z,6.32
2016-12-27T09:25:05.215Z,6.32
2016-12-27T09:26:09.414Z,6.28
2016-12-27T09:27:15.584Z,6.32
2016-12-27T09:28:21.756Z,6.22
2016-12-27T09:29:27.937Z,6.28
2016-12-27T09:30:34.107Z,6.3
2016-12-27T09:31:38.313Z,6.41
2016-12-27T09:32:44.484Z,6.33
2016-12-27T09:33:48.709Z,6.47
2016-12-27T09:34:53.886Z,6.41
2016-12-27T09:36:00.067Z,6.46
2016-12-27T09:37:05.271Z,6.43
2016-12-27T09:38:11.599Z,6.43
2016-12-27T09:39:17.490Z,6.54
2016-12-27T09:40:22.689Z,6.56
2016-12-27T09:41:26.920Z,6.56
2016-12-27T09:42:32.125Z,6.56
2016-12-27T09:43:36.390Z,6.66
2016-12-27T09:44:41.591Z,6.61
2016-12-27T09:45:46.757Z,6.66
2016-12-27T09:46:50.992Z,6.72
2016-12-27T09:47:56.203Z,6.69
2016-12-27T09:49:02.366Z,6.66
2016-12-27T09:50:08.539Z,6.63
2016-12-27T09:51:14.746Z,6.71
2016-12-27T09:52:19.966Z,6.76
2016-12-27T09:53:24.161Z,6.94
2016-12-27T09:54:30.326Z,7.09
2016-12-27T09:55:35.532Z,7.31
2016-12-27T09:56:40.726Z,7.71
2016-12-27T09:57:45.935Z,7.96
2016-12-27T09:58:52.110Z,8.12
2016-12-27T09:59:57.365Z,8.5
2016-12-27T10:01:03.539Z,8.66
2016-12-27T10:02:09.709Z,8.91
2016-12-27T10:03:14.907Z,9.2
2016-12-27T10:04:19.146Z,9.5
2016-12-27T10:05:22.406Z,9.67
2016-12-27T10:06:27.598Z,9.91
2016-12-27T10:07:31.838Z,10
2016-12-27T10:08:36.985Z,10.07
2016-12-27T10:09:42.194Z,10.17
2016-12-27T10:10:46.435Z,10.34
2016-12-27T10:11:52.599Z,10.37
2016-12-27T10:12:58.776Z,10.46
2016-12-27T10:14:03.972Z,10.55
2016-12-27T10:15:09.153Z,10.63
2016-12-27T10:16:14.385Z,10.84
2016-12-27T10:17:20.657Z,10.92
2016-12-27T10:18:26.936Z,11.06
2016-12-27T10:19:31.149Z,11.21
2016-12-27T10:20:35.351Z,11.31
2016-12-27T10:21:40.611Z,11.5
2016-12-27T10:22:46.780Z,11.24
2016-12-27T10:23:51.991Z,11.16
2016-12-27T10:24:58.184Z,11.14
2016-12-27T10:26:03.364Z,11.16
2016-12-27T10:27:09.560Z,11.13
2016-12-27T10:28:14.756Z,11.01
2016-12-27T10:29:20.944Z,11.06
2016-12-27T10:30:25.148Z,11.09
2016-12-27T10:31:29.484Z,11.24
2016-12-27T10:32:34.691Z,11.24
2016-12-27T10:33:38.900Z,11.27
2016-12-27T10:34:44.252Z,11.27
2016-12-27T10:35:49.755Z,11.25
2016-12-27T10:36:55.879Z,11.02
2016-12-27T10:38:02.059Z,11.01
2016-12-27T10:39:07.302Z,11.03
2016-12-27T10:40:13.437Z,10.96
2016-12-27T10:41:18.648Z,10.99
2016-12-27T10:42:24.829Z,11.1
2016-12-27T10:43:30.061Z,11.06
2016-12-27T10:44:36.225Z,10.99
2016-12-27T10:45:40.443Z,10.98
2016-12-27T10:46:45.643Z,10.8
2016-12-27T10:47:51.833Z,10.58
2016-12-27T10:48:57.042Z,10.7
2016-12-27T10:50:03.248Z,10.74
2016-12-27T10:51:09.417Z,10.44
2016-12-27T10:52:14.620Z,10.44
2016-12-27T10:53:20.893Z,10.36
2016-12-27T10:54:25.105Z,10.04
2016-12-27T10:55:30.316Z,10.07
2016-12-27T10:56:32.764Z,9.99
2016-12-27T10:57:38.937Z,9.96
2016-12-27T10:58:45.112Z,9.7
2016-12-27T10:59:49.348Z,9.6
2016-12-27T11:00:54.551Z,9.49
2016-12-27T11:01:58.758Z,9.43
2016-12-27T11:03:03.968Z,9.39
2016-12-27T11:04:10.149Z,9.25
2016-12-27T11:05:14.352Z,9.12
2016-12-27T11:06:19.635Z,9.15
2016-12-27T11:07:25.813Z,8.91
2016-12-27T11:08:32.044Z,8.96
2016-12-27T11:09:38.208Z,8.99
2016-12-27T11:10:44.377Z,8.87
2016-12-27T11:11:49.567Z,8.87
2016-12-27T11:12:55.812Z,8.72
2016-12-27T11:13:59.093Z,8.73
2016-12-27T11:15:04.389Z,8.71
2016-12-27T11:16:10.637Z,8.69
2016-12-27T11:17:15.121Z,8.68
2016-12-27T11:18:21.297Z,8.6
2016-12-27T11:19:27.478Z,8.6
2016-12-27T11:20:33.647Z,8.65
2016-12-27T11:21:39.817Z,8.66
2016-12-27T11:22:45.018Z,8.58
2016-12-27T11:23:48.266Z,8.57
2016-12-27T11:24:52.497Z,8.57
2016-12-27T11:25:56.708Z,8.57
2016-12-27T11:27:01.917Z,8.58
2016-12-27T11:28:07.134Z,8.54
2016-12-27T11:29:13.312Z,8.51
2016-12-27T11:30:19.493Z,8.65
2016-12-27T11:31:25.759Z,8.58
2016-12-27T11:32:29.980Z,8.58
2016-12-27T11:33:36.166Z,8.68
2016-12-27T11:34:42.351Z,8.71
2016-12-27T11:35:47.571Z,8.72
2016-12-27T11:36:53.744Z,8.69
2016-12-27T11:37:57.056Z,8.75
2016-12-27T11:40:08.439Z,8.75
2016-12-27T11:41:13.621Z,8.71
2016-12-27T11:42:19.789Z,8.76
2016-12-27T11:44:29.931Z,8.76
2016-12-27T11:45:35.124Z,8.83
2016-12-27T11:46:41.295Z,8.9
2016-12-27T11:47:46.503Z,8.87
2016-12-27T11:48:49.745Z,8.9
2016-12-27T11:49:55.924Z,8.9
2016-12-27T11:51:02.092Z,8.88
2016-12-27T11:52:07.391Z,8.81
2016-12-27T11:53:13.575Z,8.86
2016-12-27T11:54:18.750Z,8.78
2016-12-27T11:55:21.997Z,8.76
2016-12-27T11:56:26.970Z,8.68
2016-12-27T11:57:32.204Z,8.76
2016-12-27T11:58:37.464Z,8.76
2016-12-27T11:59:43.711Z,8.79
2016-12-27T12:00:48.956Z,8.69
2016-12-27T12:01:55.236Z,8.65
2016-12-27T12:02:59.530Z,8.73
2016-12-27T12:04:04.718Z,8.69
2016-12-27T12:05:09.928Z,8.75
2016-12-27T12:06:16.106Z,8.63
2016-12-27T12:07:21.395Z,8.69
2016-12-27T12:08:26.720Z,8.58
2016-12-27T12:09:31.884Z,8.58
2016-12-27T12:10:36.193Z,8.54
2016-12-27T12:11:41.403Z,8.51
2016-12-27T12:12:46.616Z,8.48
2016-12-27T12:13:52.896Z,8.44
2016-12-27T12:14:57.168Z,8.44
2016-12-27T12:16:01.397Z,8.51
2016-12-27T12:17:07.618Z,8.5
2016-12-27T12:18:12.817Z,8.53
2016-12-27T12:19:18.116Z,8.36
2016-12-27T12:20:23.320Z,8.45
2016-12-27T12:21:28.502Z,8.39
2016-12-27T12:22:34.773Z,8.47
2016-12-27T12:23:39.027Z,8.45
2016-12-27T12:24:45.197Z,8.39
2016-12-27T12:25:51.362Z,8.36
2016-12-27T12:26:54.608Z,8.4
2016-12-27T12:27:59.943Z,8.45
2016-12-27T12:29:05.180Z,8.37
2016-12-27T12:30:10.378Z,8.32
2016-12-27T12:31:16.558Z,8.4
2016-12-27T12:32:21.756Z,8.37
2016-12-27T12:33:27.936Z,8.4
2016-12-27T12:34:33.137Z,8.44
2016-12-27T12:35:38.341Z,8.4
2016-12-27T12:36:43.514Z,8.42
2016-12-27T12:37:48.732Z,8.44
2016-12-27T12:38:54.903Z,8.45
2016-12-27T12:40:01.073Z,8.4
2016-12-27T12:41:06.298Z,8.47
2016-12-27T12:42:12.469Z,8.44
2016-12-27T12:43:17.681Z,8.42
2016-12-27T12:44:22.865Z,8.39
2016-12-27T12:45:27.102Z,8.42
2016-12-27T12:46:32.304Z,8.44
2016-12-27T12:47:37.514Z,8.44
2016-12-27T12:48:42.774Z,8.39
2016-12-27T12:49:47.984Z,8.44
2016-12-27T12:50:53.189Z,8.48
2016-12-27T12:51:58.420Z,8.5
2016-12-27T12:53:03.598Z,8.44
2016-12-27T12:54:09.816Z,8.53
2016-12-27T12:55:15.015Z,8.51
2016-12-27T12:56:20.214Z,8.53
2016-12-27T12:57:25.427Z,8.53
2016-12-27T12:58:30.676Z,8.54
2016-12-27T12:59:35.877Z,8.58
2016-12-27T13:00:42.059Z,8.53
2016-12-27T13:01:47.263Z,8.6
2016-12-27T13:02:53.444Z,8.58
2016-12-27T13:03:58.625Z,8.65
2016-12-27T13:05:03.795Z,8.68
2016-12-27T13:06:08.995Z,8.69
2016-12-27T13:07:14.212Z,8.65
2016-12-27T13:08:20.386Z,8.69
2016-12-27T13:09:25.622Z,8.75
2016-12-27T13:10:29.798Z,8.81
2016-12-27T13:11:35.001Z,8.79
2016-12-27T13:12:40.206Z,8.9
2016-12-27T13:13:44.455Z,8.94
2016-12-27T13:14:50.631Z,9.05
2016-12-27T13:15:55.845Z,9.16
2016-12-27T13:16:59.145Z,9.16
2016-12-27T13:18:03.445Z,9.27
2016-12-27T13:19:08.642Z,9.27
2016-12-27T13:20:14.810Z,9.4
2016-12-27T13:21:21.067Z,9.4
2016-12-27T13:22:25.241Z,9.45
2016-12-27T13:23:31.416Z,9.49
2016-12-27T13:24:37.704Z,9.43
2016-12-27T13:25:41.911Z,9.43
2016-12-27T13:26:48.082Z,9.43
2016-12-27T13:27:52.372Z,9.49
2016-12-27T13:28:57.625Z,9.48
2016-12-27T13:30:02.786Z,9.5
2016-12-27T13:31:06.987Z,9.53
2016-12-27T13:32:13.158Z,9.5
2016-12-27T13:33:18.369Z,9.5
2016-12-27T13:34:23.577Z,9.48
2016-12-27T13:35:29.760Z,9.49
2016-12-27T13:36:34.961Z,9.5
2016-12-27T13:37:40.264Z,9.46
2016-12-27T13:38:45.478Z,9.42
2016-12-27T13:39:51.648Z,9.42
2016-12-27T13:40:55.865Z,9.39
2016-12-27T13:42:02.101Z,9.4
2016-12-27T13:43:08.453Z,9.42
2016-12-27T13:44:13.661Z,9.35
2016-12-27T13:45:19.844Z,9.5
2016-12-27T13:46:24.074Z,9.49
2016-12-27T13:47:27.347Z,9.49
2016-12-27T13:48:33.525Z,9.53
2016-12-27T13:49:39.697Z,9.53
2016-12-27T13:50:44.897Z,9.52
2016-12-27T13:51:51.074Z,9.52
2016-12-27T13:52:56.304Z,9.56
2016-12-27T13:54:02.474Z,9.56
2016-12-27T13:55:07.686Z,9.6
2016-12-27T13:56:13.920Z,9.52
2016-12-27T13:57:20.169Z,9.5
2016-12-27T13:58:26.341Z,9.49
2016-12-27T13:59:32.515Z,9.5
2016-12-27T14:00:38.679Z,9.43
2016-12-27T14:01:42.886Z,9.46
2016-12-27T14:02:48.090Z,9.35
2016-12-27T14:03:52.429Z,9.4
2016-12-27T14:04:58.601Z,9.39
2016-12-27T14:06:03.454Z,9.43
2016-12-27T14:07:06.708Z,9.39
2016-12-27T14:08:12.884Z,9.32
2016-12-27T14:09:19.055Z,9.21
2016-12-27T14:10:25.230Z,9.25
2016-12-27T14:11:31.395Z,9.28
2016-12-27T14:12:37.671Z,9.28
2016-12-27T14:13:43.912Z,9.21
2016-12-27T14:14:50.081Z,9.21
2016-12-27T14:15:56.266Z,9.16
2016-12-27T14:17:01.548Z,9.1
2016-12-27T14:18:06.722Z,9.06
2016-12-27T14:19:12.915Z,9.05
2016-12-27T14:20:18.165Z,8.99
2016-12-27T14:21:23.386Z,8.97
2016-12-27T14:22:29.562Z,8.94
2016-12-27T14:23:34.753Z,8.97
2016-12-27T14:24:38.974Z,8.94
2016-12-27T14:25:43.193Z,9.04
2016-12-27T14:26:49.354Z,9.02
2016-12-27T14:27:53.582Z,9.06
2016-12-27T14:28:59.752Z,9.12
2016-12-27T14:30:05.939Z,9.2
2016-12-27T14:31:11.121Z,9.15
2016-12-27T14:32:17.397Z,9.13
2016-12-27T14:33:23.563Z,9.18
2016-12-27T14:34:29.748Z,9.13
2016-12-27T14:35:35.004Z,9.13